ADDS METAR Data INFO
IDs: Format: Raw Decoded Include TAF

Data at: 2031 UTC 16 Dec 2017

KLNK 161954Z 04007KT 10SM CLR 13/M04 A2985 RMK AO2 SLP109 T01281044
KLNK 161854Z 03011KT 10SM CLR 12/M04 A2984 RMK AO2 SLP108 T01221039
KLNK 161754Z 04011KT 10SM CLR 12/M04 A2984 RMK AO2 SLP109 T01171039 10122 21039 50012
KLNK 161654Z 00000KT 10SM CLR 07/M05 A2986 RMK AO2 SLP114 T00721050
KLNK 161554Z 00000KT 10SM CLR 03/M06 A2983 RMK AO2 SLP109 T00331061
KLNK 161454Z 19004KT 10SM CLR M01/M05 A2981 RMK AO2 SLP101 T10061050 51013
KLNK 161354Z 00000KT 10SM CLR M03/M08 A2980 RMK AO2 SLP102 T10331078 $
KLNK 161254Z 00000KT 10SM CLR M02/M07 A2979 RMK AO2 SLP095 T10171072 $
KLNK 161154Z 17003KT 10SM CLR 00/M07 A2977 RMK AO2 SLP087 T00001067 10050 21011 53002
KLNK 161054Z AUTO 16005KT 10SM CLR 01/M07 A2976 RMK AO2 SLP083 T00061067
KLNK 160954Z AUTO 20003KT 10SM CLR 01/M07 A2976 RMK AO2 SLP081 T00111067
KLNK 160854Z AUTO 18004KT 10SM CLR 02/M07 A2976 RMK AO2 SLP084 T00171067 53001
KLNK 160754Z AUTO 21007KT 10SM CLR 05/M06 A2976 RMK AO2 SLP079 T00501061
KLNK 160654Z AUTO 21008KT 10SM CLR 04/M06 A2976 RMK AO2 SLP081 T00391061
KLNK 160554Z AUTO 21008KT 10SM CLR 04/M06 A2976 RMK AO2 SLP083 T00391061 10072 20039 400941028 58009
KLNK 160454Z AUTO 21009KT 10SM CLR 04/M06 A2977 RMK AO2 SLP088 T00441056
KLNK 160354Z 22008KT 10SM CLR 05/M05 A2978 RMK AO2 SLP091 T00501050
KLNK 160254Z 22013KT 10SM CLR 07/M04 A2979 RMK AO2 SLP096 T00671044 56012
KLNK 160154Z 22013G22KT 10SM CLR 07/M04 A2979 RMK AO2 SLP097 T00671044
KLNK 160054Z 21009KT 10SM CLR 06/M04 A2981 RMK AO2 SLP104 T00611039
KLNK 152354Z 21011KT 10SM CLR 07/M04 A2983 RMK AO2 SLP108 T00721039 10094 20061 56021
KLNK 152254Z 21012KT 10SM CLR 09/M04 A2985 RMK AO2 SLP112 T00891039
KLNK 152154Z 21015KT 10SM CLR 09/M03 A2987 RMK AO2 SLP120 T00941033
KLNK 152054Z 23014KT 10SM CLR 09/M03 A2989 RMK AO2 SLP128 T00941033 56036
KLNK 151954Z 23016G27KT 10SM CLR 09/M04 A2991 RMK AO2 PK WND 22027/1949 SLP135 T00891039 $
KLNK 151854Z 23016G25KT 10SM CLR 08/M03 A2996 RMK AO2 PK WND 23026/1813 PRESFR SLP151 T00781033 $
KLNK 151754Z 23016KT 10SM CLR 06/M03 A3000 RMK AO2 SLP166 T00611033 10061 21028 58026 $
KLNK 151654Z 22015KT 10SM CLR 04/M03 A3003 RMK AO2 PRESFR SLP178 T00391028 $
KLNK 151554Z 22007G16KT 10SM CLR 02/M04 A3006 RMK AO2 SLP190 T00221039 $
KLNK 151454Z 24006KT 10SM CLR M01/M06 A3008 RMK AO2 SLP197 T10111056 56010
KLNK 151354Z 24007KT 10SM CLR M03/M06 A3009 RMK AO2 SLP201 T10281061
KLNK 151254Z 25008KT 10SM CLR M02/M06 A3010 RMK AO2 SLP204 T10221056
KLNK 151154Z 25010KT 10SM BKN050 M01/M04 A3011 RMK AO2 SLP208 T10111039 10022 21011 58013
KLNK 151054Z AUTO 26007KT 10SM OVC050 01/M03 A3012 RMK AO2 SLP211 T00061028
KLNK 150954Z AUTO 27008KT 10SM OVC055 01/M03 A3014 RMK AO2 SLP217 T00061028
KLNK 150854Z AUTO 28007KT 10SM OVC055 01/M03 A3015 RMK AO2 SLP219 T00061028 56003